createdAt,value
2022-11-15T00:00:28.775Z,90.66
2022-11-15T00:01:23.843Z,90.60
2022-11-15T00:02:18.912Z,90.56
2022-11-15T00:03:13.958Z,90.53
2022-11-15T00:04:09.340Z,90.52
2022-11-15T00:05:04.464Z,90.52
2022-11-15T00:05:59.660Z,90.57
2022-11-15T00:06:54.777Z,90.60
2022-11-15T00:07:55.622Z,90.63
2022-11-15T00:08:46.155Z,90.82
2022-11-15T00:09:45.807Z,90.96
2022-11-15T00:10:37.325Z,90.97
2022-11-15T00:11:31.510Z,91.12
2022-11-15T00:12:26.596Z,91.17
2022-11-15T00:13:21.716Z,91.08
2022-11-15T00:14:16.723Z,90.88
2022-11-15T00:15:11.790Z,90.73
2022-11-15T00:16:06.907Z,90.65
2022-11-15T00:17:01.961Z,90.68
2022-11-15T00:17:57.103Z,90.69
2022-11-15T00:18:57.396Z,90.79
2022-11-15T00:19:52.619Z,90.85
2022-11-15T00:20:48.050Z,90.96
2022-11-15T00:21:43.853Z,91.08
2022-11-15T00:22:38.880Z,91.09
2022-11-15T00:23:34.210Z,91.02
2022-11-15T00:24:30.427Z,90.92
2022-11-15T00:25:25.713Z,90.85
2022-11-15T00:26:21.563Z,90.83
2022-11-15T00:27:16.608Z,90.85
2022-11-15T00:28:11.760Z,90.91
2022-11-15T00:29:07.609Z,91.04
2022-11-15T00:30:02.813Z,91.19
2022-11-15T00:30:58.594Z,91.30
2022-11-15T00:31:53.836Z,91.28
2022-11-15T00:32:49.176Z,91.25
2022-11-15T00:33:44.893Z,91.20
2022-11-15T00:34:40.088Z,91.18
2022-11-15T00:35:35.228Z,91.12
2022-11-15T00:36:31.610Z,91.08
2022-11-15T00:37:26.758Z,91.03
2022-11-15T00:38:22.549Z,91.02
2022-11-15T00:39:17.652Z,91.05
2022-11-15T00:40:12.754Z,91.19
2022-11-15T00:41:09.918Z,91.31
2022-11-15T00:42:03.833Z,91.41
2022-11-15T00:42:59.755Z,91.49
2022-11-15T00:43:54.892Z,91.57
2022-11-15T00:44:50.043Z,91.64
2022-11-15T00:45:45.980Z,91.69
2022-11-15T00:46:41.121Z,91.72
2022-11-15T00:47:36.471Z,91.72
2022-11-15T00:48:32.562Z,91.74
2022-11-15T00:49:27.772Z,91.73
2022-11-15T00:50:23.600Z,91.81
2022-11-15T00:51:18.728Z,91.93
2022-11-15T00:53:40.576Z,92.75
2022-11-15T00:54:33.778Z,92.69
2022-11-15T00:55:29.771Z,92.66
2022-11-15T00:56:24.226Z,92.64
2022-11-15T00:57:19.416Z,92.57
2022-11-15T00:58:14.642Z,92.48
2022-11-15T00:59:09.758Z,92.39
2022-11-15T01:00:05.011Z,92.31
2022-11-15T01:01:00.120Z,92.23
2022-11-15T01:01:55.198Z,92.10
2022-11-15T01:02:50.396Z,92.02
2022-11-15T01:03:45.723Z,91.94
2022-11-15T01:04:40.815Z,91.89
2022-11-15T01:05:36.053Z,91.81
2022-11-15T01:06:31.139Z,91.68
2022-11-15T01:07:26.381Z,91.66
2022-11-15T01:08:21.463Z,91.64
2022-11-15T01:09:16.712Z,91.58
2022-11-15T01:10:11.704Z,91.53
2022-11-15T01:11:06.966Z,91.46
2022-11-15T01:12:02.061Z,91.44
2022-11-15T01:12:57.264Z,91.41
2022-11-15T01:13:52.648Z,91.43
2022-11-15T01:14:47.800Z,91.46
2022-11-15T01:15:42.853Z,91.41
2022-11-15T01:16:37.938Z,91.42
2022-11-15T01:17:33.146Z,91.40
2022-11-15T01:18:28.330Z,91.40
2022-11-15T01:19:23.546Z,91.40
2022-11-15T01:20:18.766Z,91.41
2022-11-15T01:21:13.909Z,91.51
2022-11-15T01:22:09.055Z,91.54
2022-11-15T01:23:04.320Z,91.54
2022-11-15T01:23:59.675Z,91.50
2022-11-15T01:24:54.764Z,91.46
2022-11-15T01:25:49.995Z,91.42
2022-11-15T01:26:45.147Z,91.48
2022-11-15T01:27:40.328Z,91.57
2022-11-15T01:28:35.591Z,91.66
2022-11-15T01:29:30.726Z,91.73
2022-11-15T01:30:26.103Z,91.76
2022-11-15T01:31:21.016Z,91.83
2022-11-15T01:32:16.232Z,91.94
2022-11-15T01:33:11.465Z,91.97
2022-11-15T01:34:06.784Z,91.94
2022-11-15T01:35:01.876Z,91.94
2022-11-15T01:35:57.270Z,91.97
2022-11-15T01:36:52.214Z,92.04
2022-11-15T01:37:47.433Z,92.00
2022-11-15T01:38:42.498Z,92.01
2022-11-15T01:39:37.709Z,92.10
2022-11-15T01:40:32.898Z,92.07
2022-11-15T01:41:28.244Z,92.00
2022-11-15T01:42:23.183Z,92.16
2022-11-15T01:43:18.446Z,92.12
2022-11-15T01:44:13.775Z,91.99
2022-11-15T01:45:08.842Z,91.78
2022-11-15T01:46:04.063Z,91.57
2022-11-15T01:46:59.253Z,91.43
2022-11-15T01:47:54.358Z,91.23
2022-11-15T01:48:49.565Z,91.16
2022-11-15T01:49:44.653Z,91.20
2022-11-15T01:50:39.844Z,91.13
2022-11-15T01:51:35.090Z,91.13
2022-11-15T01:52:30.198Z,91.31
2022-11-15T01:53:25.409Z,91.21
2022-11-15T01:54:20.748Z,91.09
2022-11-15T01:55:15.828Z,91.00
2022-11-15T01:56:11.016Z,91.01
2022-11-15T01:57:06.252Z,91.01
2022-11-15T01:58:02.050Z,91.05
2022-11-15T01:58:56.574Z,91.11
2022-11-15T01:59:51.796Z,91.16
2022-11-15T02:00:47.014Z,91.34
2022-11-15T02:01:42.202Z,91.49
2022-11-15T02:02:37.330Z,91.62
2022-11-15T02:03:32.779Z,91.69
2022-11-15T02:04:27.668Z,91.69
2022-11-15T02:05:22.779Z,91.61
2022-11-15T02:06:17.831Z,91.53
2022-11-15T02:07:13.209Z,91.37
2022-11-15T02:08:08.186Z,91.30
2022-11-15T02:09:03.264Z,91.20
2022-11-15T02:09:58.334Z,91.18
2022-11-15T02:10:53.533Z,91.19
2022-11-15T02:11:48.744Z,91.30
2022-11-15T02:12:43.835Z,91.42
2022-11-15T02:13:38.999Z,91.47
2022-11-15T02:14:34.358Z,91.50
2022-11-15T02:15:29.553Z,91.54
2022-11-15T02:16:24.608Z,91.67
2022-11-15T02:17:19.757Z,91.80
2022-11-15T02:18:15.392Z,91.81
2022-11-15T02:19:10.001Z,91.84
2022-11-15T02:20:05.167Z,91.82
2022-11-15T02:21:00.216Z,91.81
2022-11-15T02:21:55.471Z,91.87
2022-11-15T02:22:51.376Z,91.88
2022-11-15T02:23:45.755Z,91.92
2022-11-15T02:24:40.953Z,91.99
2022-11-15T02:25:36.018Z,92.04
2022-11-15T02:26:31.207Z,92.12
2022-11-15T02:27:26.569Z,92.27
2022-11-15T02:28:21.540Z,92.32
2022-11-15T02:29:16.602Z,92.30
2022-11-15T02:30:11.680Z,92.30
2022-11-15T02:31:06.868Z,92.31
2022-11-15T02:32:02.217Z,92.32
2022-11-15T02:32:57.173Z,92.33
2022-11-15T02:33:52.358Z,92.44
2022-11-15T02:34:47.677Z,92.34
2022-11-15T02:35:42.764Z,92.22
2022-11-15T02:36:37.987Z,92.24
2022-11-15T02:37:33.054Z,92.30
2022-11-15T02:38:28.242Z,92.49
2022-11-15T02:39:23.413Z,92.58
2022-11-15T02:40:19.043Z,92.81
2022-11-15T02:41:13.693Z,92.96
2022-11-15T02:42:08.927Z,92.98
2022-11-15T02:43:08.141Z,92.88
2022-11-15T02:43:59.332Z,92.79
2022-11-15T02:44:54.425Z,92.73
2022-11-15T02:45:49.610Z,92.85
2022-11-15T02:46:45.083Z,93.00
2022-11-15T02:47:40.569Z,93.12
2022-11-15T02:48:35.135Z,93.46
2022-11-15T02:49:30.301Z,93.59
2022-11-15T02:50:25.373Z,93.46
2022-11-15T02:51:20.758Z,93.29
2022-11-15T02:52:15.807Z,93.04
2022-11-15T02:53:10.928Z,92.86
2022-11-15T02:54:06.070Z,92.71
2022-11-15T02:55:01.295Z,92.59
2022-11-15T02:55:56.578Z,92.45
2022-11-15T02:56:51.618Z,92.44
2022-11-15T02:57:46.698Z,92.52
2022-11-15T02:58:41.874Z,92.54
2022-11-15T02:59:37.075Z,92.47
2022-11-15T03:00:32.214Z,92.38
2022-11-15T03:01:27.300Z,92.30
2022-11-15T03:02:23.391Z,92.31
2022-11-15T03:03:17.543Z,92.31
2022-11-15T03:04:13.572Z,92.32
2022-11-15T03:05:07.802Z,92.38
2022-11-15T03:06:02.991Z,92.40
2022-11-15T03:06:58.375Z,92.43
2022-11-15T03:07:56.873Z,92.40
2022-11-15T03:08:49.451Z,92.42
2022-11-15T03:09:43.582Z,92.54
2022-11-15T03:10:38.768Z,92.61
2022-11-15T03:11:34.200Z,92.74
2022-11-15T03:12:29.854Z,92.84
2022-11-15T03:13:24.398Z,92.88
2022-11-15T03:14:19.816Z,92.96
2022-11-15T03:15:15.608Z,92.96
2022-11-15T03:16:10.785Z,93.04
2022-11-15T03:17:05.898Z,93.04
2022-11-15T03:18:01.121Z,93.04
2022-11-15T03:18:57.296Z,92.98
2022-11-15T03:19:51.441Z,92.98
2022-11-15T03:20:46.746Z,92.98
2022-11-15T03:21:41.804Z,93.01
2022-11-15T03:22:36.907Z,93.09
2022-11-15T03:23:32.470Z,93.12
2022-11-15T03:24:27.448Z,93.08
2022-11-15T03:25:22.581Z,93.06
2022-11-15T03:26:18.509Z,92.99
2022-11-15T03:27:13.615Z,93.04
2022-11-15T03:28:08.568Z,93.01
2022-11-15T03:29:04.374Z,92.97
2022-11-15T03:29:59.618Z,92.81
2022-11-15T03:30:54.952Z,92.76
2022-11-15T03:31:51.650Z,92.75
2022-11-15T03:32:46.334Z,92.73
2022-11-15T03:33:42.130Z,92.74
2022-11-15T03:34:37.319Z,92.76
2022-11-15T03:35:32.539Z,92.84
2022-11-15T03:36:28.224Z,92.89
2022-11-15T03:37:23.491Z,92.88
2022-11-15T03:38:19.382Z,92.84
2022-11-15T03:39:20.175Z,92.82
2022-11-15T03:40:10.867Z,92.76
2022-11-15T03:41:05.617Z,92.82
2022-11-15T03:42:00.717Z,92.77
2022-11-15T03:42:55.865Z,92.74
2022-11-15T03:43:52.324Z,92.69
2022-11-15T03:44:47.581Z,92.61
2022-11-15T03:45:43.541Z,92.60
2022-11-15T03:46:38.603Z,92.52
2022-11-15T03:47:33.741Z,92.43
2022-11-15T03:48:29.556Z,92.35
2022-11-15T03:49:24.683Z,92.27
2022-11-15T03:50:20.474Z,92.22
2022-11-15T03:51:15.542Z,92.20
2022-11-15T03:52:10.815Z,92.21
2022-11-15T03:53:06.474Z,92.20
2022-11-15T03:54:01.606Z,92.16
2022-11-15T03:54:56.887Z,92.22
2022-11-15T03:55:53.100Z,92.25
2022-11-15T03:56:48.340Z,92.28
2022-11-15T03:57:44.170Z,92.30
2022-11-15T03:58:39.260Z,92.33
2022-11-15T03:59:34.429Z,92.46
2022-11-15T04:00:30.249Z,92.53
2022-11-15T04:01:25.386Z,92.56
2022-11-15T04:02:21.342Z,92.58
2022-11-15T04:03:16.439Z,92.60
2022-11-15T04:04:11.846Z,92.65
2022-11-15T04:05:07.650Z,92.69
2022-11-15T04:06:02.861Z,92.65
2022-11-15T04:06:58.114Z,92.60
2022-11-15T04:07:54.358Z,92.56
2022-11-15T04:08:49.486Z,92.56
2022-11-15T04:09:45.325Z,92.56
2022-11-15T04:10:40.679Z,92.55
2022-11-15T04:11:36.172Z,92.63
2022-11-15T04:12:31.843Z,92.71
2022-11-15T04:13:26.865Z,92.76
2022-11-15T04:14:22.788Z,92.83
2022-11-15T04:15:17.936Z,92.90
2022-11-15T04:16:13.282Z,92.97
2022-11-15T04:17:08.866Z,93.06
2022-11-15T04:18:04.188Z,93.10
2022-11-15T04:18:59.330Z,93.16
2022-11-15T04:19:55.934Z,93.22
2022-11-15T04:20:51.101Z,93.28
2022-11-15T04:21:46.887Z,93.30
2022-11-15T04:22:42.135Z,93.30
2022-11-15T04:23:37.279Z,93.32
2022-11-15T04:24:33.279Z,93.38
2022-11-15T04:25:32.111Z,93.37
2022-11-15T04:26:23.564Z,93.39
2022-11-15T04:27:18.737Z,93.40
2022-11-15T04:28:13.877Z,93.45
2022-11-15T04:29:08.916Z,93.54
2022-11-15T04:30:03.952Z,93.55
2022-11-15T04:30:59.000Z,93.58
2022-11-15T04:31:53.995Z,93.62
2022-11-15T04:32:48.997Z,93.63
2022-11-15T04:33:44.068Z,93.65
2022-11-15T04:34:39.116Z,93.70
2022-11-15T04:35:34.116Z,93.62
2022-11-15T04:36:29.295Z,93.54
2022-11-15T04:37:24.318Z,93.46
2022-11-15T04:38:19.325Z,93.53
2022-11-15T04:39:14.421Z,93.35
2022-11-15T04:40:09.432Z,93.31
2022-11-15T04:41:04.552Z,93.29
2022-11-15T04:41:59.721Z,93.32
2022-11-15T04:42:57.189Z,93.29
2022-11-15T04:43:50.790Z,93.27
2022-11-15T04:44:44.872Z,93.14
2022-11-15T04:45:40.656Z,93.07
2022-11-15T04:46:35.840Z,92.90
2022-11-15T04:47:30.970Z,92.87
2022-11-15T04:48:26.409Z,92.84
2022-11-15T04:49:21.469Z,92.85
2022-11-15T04:50:16.687Z,92.86
2022-11-15T04:51:12.691Z,92.94
2022-11-15T04:52:07.851Z,92.95
2022-11-15T04:53:03.249Z,92.97
2022-11-15T04:53:58.279Z,93.00
2022-11-15T04:54:53.344Z,93.05
2022-11-15T04:55:48.502Z,93.01
2022-11-15T04:56:43.604Z,93.06
2022-11-15T04:57:38.898Z,93.07
2022-11-15T04:58:34.038Z,93.07
2022-11-15T04:59:32.952Z,93.05
2022-11-15T05:00:28.179Z,93.05
2022-11-15T05:01:23.473Z,93.01
2022-11-15T05:02:18.598Z,92.94
2022-11-15T05:03:13.861Z,92.96
2022-11-15T05:04:09.142Z,92.92
2022-11-15T05:05:04.475Z,92.95
2022-11-15T05:05:59.538Z,92.93
2022-11-15T05:06:54.737Z,92.99
2022-11-15T05:07:50.469Z,92.93
2022-11-15T05:08:45.603Z,92.77
2022-11-15T05:09:41.390Z,92.63
2022-11-15T05:10:36.636Z,92.54
2022-11-15T05:11:31.849Z,92.41
2022-11-15T05:12:27.702Z,92.33
2022-11-15T05:13:22.798Z,92.27
2022-11-15T05:14:17.910Z,92.24
2022-11-15T05:15:14.306Z,92.22
2022-11-15T05:16:09.700Z,92.25
2022-11-15T05:17:05.386Z,92.38
2022-11-15T05:18:00.518Z,92.53
2022-11-15T05:18:56.185Z,92.57
2022-11-15T05:19:51.718Z,92.56
2022-11-15T05:20:46.744Z,92.52
2022-11-15T05:21:42.731Z,92.49
2022-11-15T05:22:37.760Z,92.39
2022-11-15T05:23:33.488Z,92.29
2022-11-15T05:24:29.292Z,92.15
2022-11-15T05:25:24.337Z,92.03
2022-11-15T05:26:19.610Z,91.83
2022-11-15T05:27:15.978Z,91.72
2022-11-15T05:28:11.271Z,91.55
2022-11-15T05:29:07.156Z,91.46
2022-11-15T05:30:02.440Z,91.42
2022-11-15T05:30:57.878Z,91.36
2022-11-15T05:31:53.469Z,91.43
2022-11-15T05:32:48.705Z,91.51
2022-11-15T05:33:44.567Z,91.51
2022-11-15T05:34:39.786Z,91.52
2022-11-15T05:35:35.157Z,91.52
2022-11-15T05:36:30.929Z,91.54
2022-11-15T05:37:26.035Z,91.57
2022-11-15T05:38:21.139Z,91.64
2022-11-15T05:39:17.585Z,91.81
2022-11-15T05:40:12.936Z,91.91
2022-11-15T05:41:08.646Z,92.02
2022-11-15T05:42:03.854Z,92.19
2022-11-15T05:42:59.051Z,92.35
2022-11-15T05:43:55.036Z,92.51
2022-11-15T05:44:50.101Z,92.58
2022-11-15T05:45:45.838Z,92.47
2022-11-15T05:46:40.964Z,92.24
2022-11-15T05:47:36.311Z,92.09
2022-11-15T05:48:31.863Z,91.98
2022-11-15T05:49:27.163Z,91.93
2022-11-15T05:50:22.321Z,91.80
2022-11-15T05:51:18.761Z,91.69
2022-11-15T05:52:13.954Z,91.53
2022-11-15T05:53:09.779Z,91.40
2022-11-15T05:54:04.886Z,91.41
2022-11-15T05:55:00.024Z,91.37
2022-11-15T05:55:55.840Z,91.27
2022-11-15T05:56:51.164Z,91.17
2022-11-15T05:57:47.139Z,91.18
2022-11-15T05:58:43.139Z,91.17
2022-11-15T05:59:37.580Z,91.14
2022-11-15T06:00:33.504Z,91.08
2022-11-15T06:01:28.650Z,91.04
2022-11-15T06:02:23.958Z,91.07
2022-11-15T06:03:20.274Z,91.29
2022-11-15T06:04:15.404Z,91.41
2022-11-15T06:05:11.265Z,91.50
2022-11-15T06:06:06.670Z,91.59
2022-11-15T06:07:02.079Z,91.73
2022-11-15T06:07:57.164Z,91.85
2022-11-15T06:08:52.401Z,91.98
2022-11-15T06:09:48.864Z,92.17
2022-11-15T06:10:44.283Z,92.33
2022-11-15T06:11:39.924Z,92.47
2022-11-15T06:12:35.131Z,92.61
2022-11-15T06:13:30.781Z,92.77
2022-11-15T06:14:26.293Z,92.97
2022-11-15T06:15:22.467Z,93.12
2022-11-15T06:16:17.431Z,93.22
2022-11-15T06:17:12.525Z,93.38
2022-11-15T06:18:07.812Z,93.49
2022-11-15T06:19:03.531Z,93.57
2022-11-15T06:19:58.849Z,93.64
2022-11-15T06:20:54.310Z,93.74
2022-11-15T06:21:50.519Z,93.80
2022-11-15T06:22:45.830Z,93.80
2022-11-15T06:23:42.490Z,93.81
2022-11-15T06:24:38.242Z,93.83
2022-11-15T06:25:32.756Z,93.82
2022-11-15T06:26:27.958Z,93.83
2022-11-15T06:27:23.316Z,93.89
2022-11-15T06:28:18.675Z,93.96
2022-11-15T06:29:15.505Z,94.05
2022-11-15T06:30:10.856Z,94.13
2022-11-15T06:31:07.181Z,94.17
2022-11-15T06:32:01.555Z,94.11
2022-11-15T06:32:56.626Z,94.01
2022-11-15T06:33:51.726Z,93.86
2022-11-15T06:34:46.789Z,93.70
2022-11-15T06:35:41.888Z,93.54
2022-11-15T06:36:36.990Z,93.53
2022-11-15T06:37:32.051Z,93.33
2022-11-15T06:38:27.174Z,93.23
2022-11-15T06:39:22.276Z,93.23
2022-11-15T06:40:19.194Z,93.22
2022-11-15T06:41:14.411Z,93.06
2022-11-15T06:42:09.788Z,92.92
2022-11-15T06:43:05.150Z,92.73
2022-11-15T06:44:00.234Z,92.71
2022-11-15T06:44:55.202Z,92.60
2022-11-15T06:45:50.215Z,92.46
2022-11-15T06:46:45.223Z,92.43
2022-11-15T06:47:40.358Z,92.38
2022-11-15T06:48:35.332Z,92.38
2022-11-15T06:49:32.613Z,92.41
2022-11-15T06:50:27.628Z,92.46
2022-11-15T06:51:22.587Z,92.51
2022-11-15T06:52:19.721Z,92.54
2022-11-15T06:53:12.815Z,92.57
2022-11-15T06:54:08.287Z,92.66
2022-11-15T06:55:02.765Z,92.71
2022-11-15T06:55:57.765Z,92.76
2022-11-15T06:56:52.811Z,92.80
2022-11-15T06:57:47.806Z,92.78
2022-11-15T06:58:42.865Z,92.62
2022-11-15T06:59:40.672Z,92.28
2022-11-15T07:00:33.233Z,91.80
2022-11-15T07:01:28.868Z,91.27
2022-11-15T07:02:24.143Z,90.45
2022-11-15T07:03:19.587Z,89.67
2022-11-15T07:04:17.488Z,89.07
2022-11-15T07:05:12.816Z,88.49
2022-11-15T07:06:08.262Z,88.24
2022-11-15T07:07:03.769Z,88.25
2022-11-15T07:07:59.279Z,88.26
2022-11-15T07:08:54.819Z,88.15
2022-11-15T07:09:50.850Z,88.24
2022-11-15T07:10:44.953Z,88.41
2022-11-15T07:11:40.021Z,88.83
2022-11-15T07:12:35.110Z,88.25
2022-11-15T07:13:30.809Z,87.12
2022-11-15T07:14:25.317Z,85.96
2022-11-15T07:15:20.379Z,84.87
2022-11-15T07:16:15.525Z,83.95
2022-11-15T07:17:10.574Z,83.05
2022-11-15T07:18:05.676Z,82.30
2022-11-15T07:19:00.758Z,82.25
2022-11-15T07:19:56.077Z,82.00
2022-11-15T07:20:51.489Z,82.25
2022-11-15T07:21:47.738Z,81.62
2022-11-15T07:22:42.391Z,80.62
2022-11-15T07:23:37.903Z,79.83
2022-11-15T07:24:33.677Z,79.04
2022-11-15T07:25:29.295Z,78.25
2022-11-15T07:26:24.391Z,77.63
2022-11-15T07:27:19.876Z,77.04
2022-11-15T07:28:15.324Z,76.36
2022-11-15T07:29:10.715Z,75.72
2022-11-15T07:30:06.242Z,75.25
2022-11-15T07:31:01.723Z,75.14
2022-11-15T07:31:58.208Z,75.32
2022-11-15T07:32:53.642Z,75.19
2022-11-15T07:33:49.173Z,75.65
2022-11-15T07:34:44.872Z,76.11
2022-11-15T07:35:40.327Z,76.49
2022-11-15T07:36:35.879Z,76.67
2022-11-15T07:37:30.888Z,77.01
2022-11-15T07:38:25.893Z,77.31
2022-11-15T07:39:21.378Z,77.48
2022-11-15T07:40:15.885Z,77.42
2022-11-15T07:41:10.991Z,77.04
2022-11-15T07:42:06.166Z,76.97
2022-11-15T07:43:01.155Z,76.54
2022-11-15T07:43:56.249Z,75.97
2022-11-15T07:44:55.295Z,75.57
2022-11-15T07:45:53.512Z,75.21
2022-11-15T07:46:46.515Z,75.60
2022-11-15T07:47:40.707Z,77.90
2022-11-15T07:48:44.044Z,77.54
2022-11-15T07:49:33.337Z,78.05
2022-11-15T07:50:27.790Z,77.64
2022-11-15T07:51:23.113Z,76.96
2022-11-15T07:52:18.602Z,77.04
2022-11-15T07:53:14.173Z,76.38
2022-11-15T07:54:09.648Z,76.04
2022-11-15T07:55:05.101Z,75.84
2022-11-15T07:56:00.470Z,76.53
2022-11-15T07:56:55.916Z,76.74
2022-11-15T07:57:51.394Z,76.40
2022-11-15T07:58:46.827Z,74.53
2022-11-15T07:59:42.393Z,76.25
2022-11-15T08:00:37.833Z,76.15
2022-11-15T08:01:32.936Z,75.60
2022-11-15T08:02:30.614Z,73.44
2022-11-15T08:03:23.209Z,72.09
2022-11-15T08:04:17.987Z,71.71
2022-11-15T08:05:13.128Z,71.70
2022-11-15T08:06:08.086Z,71.45
2022-11-15T08:07:03.330Z,71.03
2022-11-15T08:07:59.142Z,70.46
2022-11-15T08:08:54.414Z,70.40
2022-11-15T08:09:49.395Z,69.96
2022-11-15T08:10:44.545Z,69.82
2022-11-15T08:11:40.620Z,69.63
2022-11-15T08:12:35.929Z,70.25
2022-11-15T08:13:31.559Z,71.09
2022-11-15T08:14:26.667Z,71.55
2022-11-15T08:15:22.894Z,71.22
2022-11-15T08:16:18.261Z,70.80
2022-11-15T08:17:13.650Z,70.70
2022-11-15T08:18:09.052Z,70.50
2022-11-15T08:19:04.432Z,70.38
2022-11-15T08:19:59.930Z,70.93
2022-11-15T08:20:55.351Z,70.70
2022-11-15T08:21:50.721Z,70.82
2022-11-15T08:22:46.102Z,70.66
2022-11-15T08:23:41.476Z,70.62
2022-11-15T08:24:37.298Z,70.54
2022-11-15T08:25:31.640Z,70.67
2022-11-15T08:26:27.610Z,70.68
2022-11-15T08:27:21.717Z,71.07
2022-11-15T08:28:16.763Z,69.83
2022-11-15T08:29:11.874Z,68.97
2022-11-15T08:30:06.961Z,68.42
2022-11-15T08:31:04.904Z,68.52
2022-11-15T08:31:59.650Z,67.55
2022-11-15T08:32:54.766Z,67.47
2022-11-15T08:33:49.840Z,68.19
2022-11-15T08:34:44.944Z,68.54
2022-11-15T08:35:39.935Z,69.62
2022-11-15T08:36:44.606Z,70.82
2022-11-15T08:37:31.108Z,71.14
2022-11-15T08:38:25.116Z,71.47
2022-11-15T08:39:20.213Z,71.88
2022-11-15T08:40:15.274Z,71.52
2022-11-15T08:41:10.594Z,71.69
2022-11-15T08:42:05.422Z,70.77
2022-11-15T08:43:00.552Z,70.10
2022-11-15T08:43:55.993Z,69.41
2022-11-15T08:44:51.352Z,69.51
2022-11-15T08:45:46.762Z,70.32
2022-11-15T08:46:42.266Z,70.55
2022-11-15T08:47:37.792Z,70.82
2022-11-15T08:48:33.504Z,71.43
2022-11-15T08:49:28.722Z,71.54
2022-11-15T08:50:24.245Z,71.80
2022-11-15T08:51:19.472Z,72.15
2022-11-15T08:52:14.900Z,72.33
2022-11-15T08:53:10.344Z,71.29
2022-11-15T08:54:07.413Z,71.06
2022-11-15T08:55:01.937Z,70.96
2022-11-15T08:55:57.328Z,71.19
2022-11-15T08:56:52.711Z,71.78
2022-11-15T08:57:48.139Z,72.11
2022-11-15T08:58:43.507Z,72.31
2022-11-15T08:59:38.984Z,71.62
2022-11-15T09:00:34.415Z,71.38
2022-11-15T09:01:30.124Z,70.50
2022-11-15T09:02:25.636Z,70.31
2022-11-15T09:03:20.857Z,70.06
2022-11-15T09:04:15.715Z,69.46
2022-11-15T09:05:10.807Z,69.23
2022-11-15T09:06:05.884Z,69.71
2022-11-15T09:07:01.046Z,70.46
2022-11-15T09:07:56.036Z,70.78
2022-11-15T09:08:51.210Z,69.96
2022-11-15T09:09:48.559Z,68.90
2022-11-15T09:10:43.952Z,67.51
2022-11-15T09:11:39.405Z,66.51
2022-11-15T09:12:34.905Z,66.68
2022-11-15T09:13:30.408Z,67.86
2022-11-15T09:14:25.895Z,69.33
2022-11-15T09:15:21.335Z,70.03
2022-11-15T09:16:16.719Z,70.87
2022-11-15T09:17:12.213Z,70.81
2022-11-15T09:18:07.629Z,69.83
2022-11-15T09:19:06.416Z,69.08
2022-11-15T09:19:59.540Z,68.86
2022-11-15T09:20:54.000Z,68.33
2022-11-15T09:21:49.469Z,67.94
2022-11-15T09:22:45.275Z,66.72
2022-11-15T09:23:40.327Z,65.89
2022-11-15T09:24:35.321Z,64.95
2022-11-15T09:25:30.342Z,63.93
2022-11-15T09:26:25.436Z,63.09
2022-11-15T09:27:20.477Z,63.25
2022-11-15T09:28:15.637Z,63.17
2022-11-15T09:29:10.651Z,64.43
2022-11-15T09:30:05.726Z,66.34
2022-11-15T09:31:00.711Z,67.69
2022-11-15T09:31:55.837Z,69.14
2022-11-15T09:32:50.902Z,70.57
2022-11-15T09:33:46.025Z,72.60
2022-11-15T09:34:41.088Z,74.28
2022-11-15T09:35:36.122Z,76.23
2022-11-15T09:36:31.227Z,78.04
2022-11-15T09:37:27.165Z,79.36
2022-11-15T09:38:21.434Z,80.36
2022-11-15T09:39:16.530Z,79.96
2022-11-15T09:40:11.712Z,77.89
2022-11-15T09:41:07.533Z,76.08
2022-11-15T09:42:02.381Z,75.17
2022-11-15T09:42:58.256Z,74.06
2022-11-15T09:43:53.743Z,73.12
2022-11-15T09:44:49.269Z,72.76
2022-11-15T09:45:44.810Z,72.64
2022-11-15T09:46:41.022Z,72.75
2022-11-15T09:47:35.649Z,71.86
2022-11-15T09:48:31.384Z,71.43
2022-11-15T09:49:26.612Z,71.46
2022-11-15T09:50:21.882Z,71.90
2022-11-15T09:51:17.381Z,72.06
2022-11-15T09:52:12.727Z,72.86
2022-11-15T09:53:07.759Z,73.11
2022-11-15T09:54:45.488Z,73.32
2022-11-15T09:54:58.800Z,73.79
2022-11-15T09:55:52.865Z,73.96
2022-11-15T09:56:47.920Z,72.99
2022-11-15T09:57:43.097Z,72.12
2022-11-15T09:58:37.994Z,71.28
2022-11-15T09:59:33.069Z,71.03
2022-11-15T10:01:24.189Z,70.42
2022-11-15T10:02:22.278Z,69.95
2022-11-15T10:03:17.333Z,69.44
2022-11-15T10:04:12.773Z,68.46
2022-11-15T10:05:08.233Z,68.88
2022-11-15T10:06:03.640Z,68.95
2022-11-15T10:06:59.287Z,69.08
2022-11-15T10:07:54.555Z,69.78
2022-11-15T10:08:50.090Z,70.31
2022-11-15T10:09:45.503Z,69.72
2022-11-15T10:10:40.942Z,69.51
2022-11-15T10:11:38.120Z,69.99
2022-11-15T10:12:31.840Z,69.37
2022-11-15T10:13:27.161Z,69.14
2022-11-15T10:14:22.578Z,69.23
2022-11-15T10:15:18.058Z,68.97
2022-11-15T10:16:13.172Z,68.93
2022-11-15T10:17:08.188Z,68.27
2022-11-15T10:18:03.233Z,68.04
2022-11-15T10:18:58.337Z,67.72
2022-11-15T10:19:53.458Z,67.62
2022-11-15T10:20:48.507Z,66.72
2022-11-15T10:21:44.180Z,66.21
2022-11-15T10:22:39.201Z,66.29
2022-11-15T10:23:33.677Z,66.00
2022-11-15T10:24:29.356Z,67.07
2022-11-15T10:25:25.201Z,66.56
2022-11-15T10:26:20.342Z,67.10
2022-11-15T10:27:15.672Z,66.35
2022-11-15T10:28:10.713Z,65.91
2022-11-15T10:29:06.553Z,66.18
2022-11-15T10:30:02.054Z,67.34
2022-11-15T10:30:57.604Z,68.78
2022-11-15T10:31:53.150Z,67.55
2022-11-15T10:32:48.457Z,66.53
2022-11-15T10:33:43.864Z,65.81
2022-11-15T10:36:04.230Z,64.90
2022-11-15T10:36:59.554Z,63.48
2022-11-15T10:37:54.986Z,63.06
2022-11-15T10:38:50.424Z,61.90
2022-11-15T10:39:45.876Z,60.99
2022-11-15T10:40:41.283Z,61.31
2022-11-15T10:41:36.731Z,60.88
2022-11-15T10:42:32.151Z,61.38
2022-11-15T10:43:27.570Z,60.76
2022-11-15T10:44:23.037Z,59.97
2022-11-15T10:45:18.457Z,59.49
2022-11-15T10:46:44.521Z,60.06
2022-11-15T10:47:10.611Z,60.64
2022-11-15T10:48:05.141Z,60.88
2022-11-15T10:49:00.749Z,60.97
2022-11-15T10:49:56.423Z,61.21
2022-11-15T10:50:51.790Z,61.75
2022-11-15T10:51:47.303Z,61.52
2022-11-15T10:52:42.660Z,60.24
2022-11-15T10:53:38.606Z,60.03
2022-11-15T10:54:33.478Z,60.11
2022-11-15T10:55:28.865Z,60.06
2022-11-15T10:56:24.315Z,59.46
2022-11-15T10:57:19.616Z,59.35
2022-11-15T10:58:15.016Z,58.53
2022-11-15T10:59:10.556Z,57.56
2022-11-15T11:00:06.214Z,58.16
2022-11-15T11:01:01.640Z,57.15
2022-11-15T11:01:57.114Z,57.19
2022-11-15T11:02:52.639Z,57.37
2022-11-15T11:03:48.159Z,58.39
2022-11-15T11:04:43.636Z,59.08
2022-11-15T11:05:42.172Z,59.52
2022-11-15T11:06:34.531Z,60.38
2022-11-15T11:07:30.311Z,60.10
2022-11-15T11:08:25.507Z,59.64
2022-11-15T11:09:20.991Z,59.28
2022-11-15T11:10:44.191Z,58.51
2022-11-15T11:11:13.065Z,57.76
2022-11-15T11:12:07.526Z,57.31
2022-11-15T11:13:03.061Z,56.79
2022-11-15T11:13:58.445Z,56.91
2022-11-15T11:14:53.866Z,57.76
2022-11-15T11:15:49.288Z,58.18
2022-11-15T11:16:44.689Z,59.53
2022-11-15T11:17:40.372Z,60.66
2022-11-15T11:18:35.779Z,60.84
2022-11-15T11:19:31.187Z,60.21
2022-11-15T11:20:26.700Z,60.20
2022-11-15T11:21:25.671Z,60.35
2022-11-15T11:22:18.518Z,60.75
2022-11-15T11:23:12.933Z,60.69
2022-11-15T11:24:08.450Z,60.67
2022-11-15T11:25:03.917Z,60.46
2022-11-15T11:26:00.095Z,59.85
2022-11-15T11:26:57.169Z,60.06
2022-11-15T11:27:50.558Z,60.14
2022-11-15T11:28:46.121Z,60.46
2022-11-15T11:29:41.539Z,60.40
2022-11-15T11:30:36.915Z,60.33
2022-11-15T11:31:32.397Z,60.24
2022-11-15T11:32:27.897Z,60.72
2022-11-15T11:33:23.536Z,61.43
2022-11-15T11:34:19.020Z,61.72
2022-11-15T11:35:14.495Z,61.40
2022-11-15T11:36:10.130Z,60.97
2022-11-15T11:37:06.178Z,61.46
2022-11-15T11:38:01.099Z,60.95
2022-11-15T11:38:56.584Z,60.55
2022-11-15T11:39:52.017Z,60.86
2022-11-15T11:40:47.451Z,60.26
2022-11-15T11:41:42.960Z,59.78
2022-11-15T11:42:38.443Z,59.53
2022-11-15T11:43:33.997Z,58.52
2022-11-15T11:44:30.231Z,58.45
2022-11-15T11:45:24.904Z,57.94
2022-11-15T11:46:20.477Z,57.95
2022-11-15T11:47:16.108Z,57.96
2022-11-15T11:48:11.456Z,57.56
2022-11-15T11:49:06.954Z,57.91
2022-11-15T11:50:02.477Z,58.15
2022-11-15T11:50:58.451Z,58.66
2022-11-15T11:51:53.510Z,57.29
2022-11-15T11:52:48.871Z,56.54
2022-11-15T11:53:44.371Z,56.68
2022-11-15T11:54:39.869Z,56.53
2022-11-15T11:55:35.365Z,57.30
2022-11-15T11:56:30.939Z,57.56